sensor_id;sensor_type;location;lat;lon;timestamp;temperature;humidity
13472;DHT22;6808;49.444;11.034;2022-07-22T00:01:39;21.70;93.20
13472;DHT22;6808;49.444;11.034;2022-07-22T00:04:05;21.80;93.30
13472;DHT22;6808;49.444;11.034;2022-07-22T00:06:31;21.90;93.80
13472;DHT22;6808;49.444;11.034;2022-07-22T00:08:56;21.80;93.90
13472;DHT22;6808;49.444;11.034;2022-07-22T00:11:23;22.30;94.30
13472;DHT22;6808;49.444;11.034;2022-07-22T00:13:48;22.00;94.30
13472;DHT22;6808;49.444;11.034;2022-07-22T00:16:14;21.80;94.30
13472;DHT22;6808;49.444;11.034;2022-07-22T00:18:40;21.70;94.20
13472;DHT22;6808;49.444;11.034;2022-07-22T00:21:06;21.80;94.30
13472;DHT22;6808;49.444;11.034;2022-07-22T00:23:31;21.70;94.30
13472;DHT22;6808;49.444;11.034;2022-07-22T00:25:57;21.50;94.20
13472;DHT22;6808;49.444;11.034;2022-07-22T00:28:23;21.50;94.40
13472;DHT22;6808;49.444;11.034;2022-07-22T00:30:48;21.60;94.90
13472;DHT22;6808;49.444;11.034;2022-07-22T00:33:14;21.40;95.20
13472;DHT22;6808;49.444;11.034;2022-07-22T00:35:40;21.50;95.10
13472;DHT22;6808;49.444;11.034;2022-07-22T00:38:05;21.30;95.50
13472;DHT22;6808;49.444;11.034;2022-07-22T00:40:31;21.30;95.70
13472;DHT22;6808;49.444;11.034;2022-07-22T00:42:56;21.20;95.70
13472;DHT22;6808;49.444;11.034;2022-07-22T00:45:22;21.10;96.00
13472;DHT22;6808;49.444;11.034;2022-07-22T00:47:48;21.30;96.00
13472;DHT22;6808;49.444;11.034;2022-07-22T00:50:13;21.30;95.90
13472;DHT22;6808;49.444;11.034;2022-07-22T00:52:41;21.30;95.90
13472;DHT22;6808;49.444;11.034;2022-07-22T00:55:07;21.20;95.80
13472;DHT22;6808;49.444;11.034;2022-07-22T00:57:34;21.10;95.90
13472;DHT22;6808;49.444;11.034;2022-07-22T01:00:00;21.10;96.00
13472;DHT22;6808;49.444;11.034;2022-07-22T01:02:26;21.40;96.20
13472;DHT22;6808;49.444;11.034;2022-07-22T01:04:51;21.00;96.10
13472;DHT22;6808;49.444;11.034;2022-07-22T01:07:17;21.00;96.20
13472;DHT22;6808;49.444;11.034;2022-07-22T01:09:44;21.00;96.40
13472;DHT22;6808;49.444;11.034;2022-07-22T01:12:10;21.00;96.40
13472;DHT22;6808;49.444;11.034;2022-07-22T01:14:36;20.90;96.40
13472;DHT22;6808;49.444;11.034;2022-07-22T01:17:02;20.90;96.60
13472;DHT22;6808;49.444;11.034;2022-07-22T01:19:27;20.80;96.70
13472;DHT22;6808;49.444;11.034;2022-07-22T01:21:53;20.80;96.80
13472;DHT22;6808;49.444;11.034;2022-07-22T01:24:24;20.90;96.80
13472;DHT22;6808;49.444;11.034;2022-07-22T01:26:49;20.80;96.80
13472;DHT22;6808;49.444;11.034;2022-07-22T01:29:15;20.80;96.90
13472;DHT22;6808;49.444;11.034;2022-07-22T01:31:41;20.70;96.90
13472;DHT22;6808;49.444;11.034;2022-07-22T01:34:06;20.70;97.00
13472;DHT22;6808;49.444;11.034;2022-07-22T01:36:34;21.50;97.60
13472;DHT22;6808;49.444;11.034;2022-07-22T01:39:00;20.60;97.10
13472;DHT22;6808;49.444;11.034;2022-07-22T01:41:26;20.60;97.20
13472;DHT22;6808;49.444;11.034;2022-07-22T01:43:51;20.60;97.30
13472;DHT22;6808;49.444;11.034;2022-07-22T01:46:17;20.70;97.50
13472;DHT22;6808;49.444;11.034;2022-07-22T01:48:51;20.50;97.50
13472;DHT22;6808;49.444;11.034;2022-07-22T01:51:17;20.50;97.60
13472;DHT22;6808;49.444;11.034;2022-07-22T01:53:43;20.80;97.80
13472;DHT22;6808;49.444;11.034;2022-07-22T01:56:08;20.50;97.60
13472;DHT22;6808;49.444;11.034;2022-07-22T01:58:34;20.40;97.70
13472;DHT22;6808;49.444;11.034;2022-07-22T02:00:59;20.30;97.90
13472;DHT22;6808;49.444;11.034;2022-07-22T02:03:25;20.60;98.20
13472;DHT22;6808;49.444;11.034;2022-07-22T02:05:50;20.20;98.20
13472;DHT22;6808;49.444;11.034;2022-07-22T02:08:16;20.10;98.20
13472;DHT22;6808;49.444;11.034;2022-07-22T02:10:42;20.20;98.30
13472;DHT22;6808;49.444;11.034;2022-07-22T02:13:08;20.70;98.40
13472;DHT22;6808;49.444;11.034;2022-07-22T02:15:40;20.20;98.20
13472;DHT22;6808;49.444;11.034;2022-07-22T02:18:11;20.00;98.30
13472;DHT22;6808;49.444;11.034;2022-07-22T02:20:37;19.90;98.30
13472;DHT22;6808;49.444;11.034;2022-07-22T02:23:03;19.90;98.40
13472;DHT22;6808;49.444;11.034;2022-07-22T02:25:28;19.80;98.50
13472;DHT22;6808;49.444;11.034;2022-07-22T02:27:54;19.90;98.60
13472;DHT22;6808;49.444;11.034;2022-07-22T02:30:19;19.80;98.80
13472;DHT22;6808;49.444;11.034;2022-07-22T02:32:45;19.70;98.80
13472;DHT22;6808;49.444;11.034;2022-07-22T02:35:10;19.70;98.80
13472;DHT22;6808;49.444;11.034;2022-07-22T02:37:36;19.70;98.80
13472;DHT22;6808;49.444;11.034;2022-07-22T02:40:03;19.70;98.80
13472;DHT22;6808;49.444;11.034;2022-07-22T02:42:31;19.70;98.90
13472;DHT22;6808;49.444;11.034;2022-07-22T02:44:57;19.70;99.00
13472;DHT22;6808;49.444;11.034;2022-07-22T02:47:22;19.70;99.20
13472;DHT22;6808;49.444;11.034;2022-07-22T02:49:48;19.60;99.10
13472;DHT22;6808;49.444;11.034;2022-07-22T02:52:13;19.60;99.20
13472;DHT22;6808;49.444;11.034;2022-07-22T02:54:40;19.60;99.30
13472;DHT22;6808;49.444;11.034;2022-07-22T02:57:05;20.00;99.50
13472;DHT22;6808;49.444;11.034;2022-07-22T02:59:31;19.60;99.20
13472;DHT22;6808;49.444;11.034;2022-07-22T03:01:56;19.60;99.10
13472;DHT22;6808;49.444;11.034;2022-07-22T03:04:22;19.60;99.10
13472;DHT22;6808;49.444;11.034;2022-07-22T03:06:48;19.60;99.30
13472;DHT22;6808;49.444;11.034;2022-07-22T03:09:13;19.60;99.10
13472;DHT22;6808;49.444;11.034;2022-07-22T03:11:40;19.60;99.10
13472;DHT22;6808;49.444;11.034;2022-07-22T03:14:05;19.60;99.20
13472;DHT22;6808;49.444;11.034;2022-07-22T03:16:31;19.60;99.20
13472;DHT22;6808;49.444;11.034;2022-07-22T03:18:57;19.50;99.20
13472;DHT22;6808;49.444;11.034;2022-07-22T03:21:22;19.50;99.30
13472;DHT22;6808;49.444;11.034;2022-07-22T03:23:52;19.50;99.40
13472;DHT22;6808;49.444;11.034;2022-07-22T03:26:22;19.40;99.50
13472;DHT22;6808;49.444;11.034;2022-07-22T03:28:49;19.40;99.60
13472;DHT22;6808;49.444;11.034;2022-07-22T03:31:14;19.40;99.70
13472;DHT22;6808;49.444;11.034;2022-07-22T03:33:40;19.30;99.80
13472;DHT22;6808;49.444;11.034;2022-07-22T03:36:06;19.30;99.80
13472;DHT22;6808;49.444;11.034;2022-07-22T03:38:33;19.20;99.90
13472;DHT22;6808;49.444;11.034;2022-07-22T03:40:59;19.20;99.90
13472;DHT22;6808;49.444;11.034;2022-07-22T03:43:24;19.60;99.90
13472;DHT22;6808;49.444;11.034;2022-07-22T03:45:50;19.10;99.90
13472;DHT22;6808;49.444;11.034;2022-07-22T03:48:16;19.10;99.90
13472;DHT22;6808;49.444;11.034;2022-07-22T03:50:41;19.10;99.90
13472;DHT22;6808;49.444;11.034;2022-07-22T03:53:07;19.10;99.90
13472;DHT22;6808;49.444;11.034;2022-07-22T03:55:32;19.10;99.90
13472;DHT22;6808;49.444;11.034;2022-07-22T03:57:58;19.10;99.90
13472;DHT22;6808;49.444;11.034;2022-07-22T04:00:23;19.10;99.90
13472;DHT22;6808;49.444;11.034;2022-07-22T04:02:49;19.10;99.90
13472;DHT22;6808;49.444;11.034;2022-07-22T04:05:15;19.00;99.90
13472;DHT22;6808;49.444;11.034;2022-07-22T04:07:40;19.00;99.90
13472;DHT22;6808;49.444;11.034;2022-07-22T04:10:06;19.00;99.90
13472;DHT22;6808;49.444;11.034;2022-07-22T04:12:37;19.00;99.90
13472;DHT22;6808;49.444;11.034;2022-07-22T04:15:06;19.00;99.90
13472;DHT22;6808;49.444;11.034;2022-07-22T04:17:36;19.00;99.90
13472;DHT22;6808;49.444;11.034;2022-07-22T04:20:03;19.00;99.90
13472;DHT22;6808;49.444;11.034;2022-07-22T04:22:32;19.00;99.90
13472;DHT22;6808;49.444;11.034;2022-07-22T04:24:58;19.10;99.90
13472;DHT22;6808;49.444;11.034;2022-07-22T04:27:25;19.10;99.90
13472;DHT22;6808;49.444;11.034;2022-07-22T04:29:51;19.10;99.90
13472;DHT22;6808;49.444;11.034;2022-07-22T04:32:17;19.10;99.90
13472;DHT22;6808;49.444;11.034;2022-07-22T04:34:44;19.20;99.90
13472;DHT22;6808;49.444;11.034;2022-07-22T04:37:10;19.20;99.90
13472;DHT22;6808;49.444;11.034;2022-07-22T04:39:35;19.10;99.90
13472;DHT22;6808;49.444;11.034;2022-07-22T04:42:01;19.10;99.90
13472;DHT22;6808;49.444;11.034;2022-07-22T04:44:26;19.10;99.90
13472;DHT22;6808;49.444;11.034;2022-07-22T04:46:52;19.10;99.90
13472;DHT22;6808;49.444;11.034;2022-07-22T04:49:18;19.20;99.90
13472;DHT22;6808;49.444;11.034;2022-07-22T04:51:43;19.40;99.90
13472;DHT22;6808;49.444;11.034;2022-07-22T04:54:09;19.70;99.90
13472;DHT22;6808;49.444;11.034;2022-07-22T04:56:34;19.60;99.90
13472;DHT22;6808;49.444;11.034;2022-07-22T04:59:06;19.70;99.90
13472;DHT22;6808;49.444;11.034;2022-07-22T05:01:35;19.80;99.90
13472;DHT22;6808;49.444;11.034;2022-07-22T05:04:04;19.90;99.90
13472;DHT22;6808;49.444;11.034;2022-07-22T05:06:32;20.40;99.90
13472;DHT22;6808;49.444;11.034;2022-07-22T05:09:09;20.00;99.90
13472;DHT22;6808;49.444;11.034;2022-07-22T05:11:55;20.00;99.90
13472;DHT22;6808;49.444;11.034;2022-07-22T05:14:21;20.00;99.90
13472;DHT22;6808;49.444;11.034;2022-07-22T05:16:46;20.00;99.90
13472;DHT22;6808;49.444;11.034;2022-07-22T05:19:12;20.10;99.90
13472;DHT22;6808;49.444;11.034;2022-07-22T05:21:37;20.10;99.90
13472;DHT22;6808;49.444;11.034;2022-07-22T05:24:03;20.10;99.90
13472;DHT22;6808;49.444;11.034;2022-07-22T05:26:29;20.10;99.90
13472;DHT22;6808;49.444;11.034;2022-07-22T05:28:59;20.20;99.90
13472;DHT22;6808;49.444;11.034;2022-07-22T05:31:24;20.20;99.90
13472;DHT22;6808;49.444;11.034;2022-07-22T05:33:50;20.20;99.90
13472;DHT22;6808;49.444;11.034;2022-07-22T05:36:17;20.20;99.90
13472;DHT22;6808;49.444;11.034;2022-07-22T05:38:43;20.20;99.90
13472;DHT22;6808;49.444;11.034;2022-07-22T05:41:09;20.30;99.90
13472;DHT22;6808;49.444;11.034;2022-07-22T05:43:34;20.30;99.90
13472;DHT22;6808;49.444;11.034;2022-07-22T05:46:00;20.30;99.90
13472;DHT22;6808;49.444;11.034;2022-07-22T05:48:26;20.30;99.90
13472;DHT22;6808;49.444;11.034;2022-07-22T05:50:55;20.40;99.90
13472;DHT22;6808;49.444;11.034;2022-07-22T05:53:20;20.70;99.90
13472;DHT22;6808;49.444;11.034;2022-07-22T05:55:46;20.60;99.90
13472;DHT22;6808;49.444;11.034;2022-07-22T05:58:15;20.80;99.90
13472;DHT22;6808;49.444;11.034;2022-07-22T06:00:40;21.00;99.90
13472;DHT22;6808;49.444;11.034;2022-07-22T06:03:07;21.90;99.90
13472;DHT22;6808;49.444;11.034;2022-07-22T06:05:33;21.40;99.90
13472;DHT22;6808;49.444;11.034;2022-07-22T06:07:58;21.70;99.90
13472;DHT22;6808;49.444;11.034;2022-07-22T06:10:24;22.10;99.90
13472;DHT22;6808;49.444;11.034;2022-07-22T06:12:49;22.60;98.80
13472;DHT22;6808;49.444;11.034;2022-07-22T06:15:15;23.00;98.20
13472;DHT22;6808;49.444;11.034;2022-07-22T06:17:45;23.50;97.00
13472;DHT22;6808;49.444;11.034;2022-07-22T06:20:10;23.60;96.80
13472;DHT22;6808;49.444;11.034;2022-07-22T06:22:36;23.70;96.70
13472;DHT22;6808;49.444;11.034;2022-07-22T06:25:04;23.90;96.00
13472;DHT22;6808;49.444;11.034;2022-07-22T06:27:32;24.00;95.60
13472;DHT22;6808;49.444;11.034;2022-07-22T06:29:57;24.00;95.60
13472;DHT22;6808;49.444;11.034;2022-07-22T06:32:23;24.10;95.20
13472;DHT22;6808;49.444;11.034;2022-07-22T06:34:48;24.50;95.30
13472;DHT22;6808;49.444;11.034;2022-07-22T06:37:14;24.90;95.40
13472;DHT22;6808;49.444;11.034;2022-07-22T06:39:40;24.30;94.90
13472;DHT22;6808;49.444;11.034;2022-07-22T06:42:06;24.40;95.00
13472;DHT22;6808;49.444;11.034;2022-07-22T06:44:31;24.40;95.10
13472;DHT22;6808;49.444;11.034;2022-07-22T06:46:57;24.20;95.40
13472;DHT22;6808;49.444;11.034;2022-07-22T06:49:28;24.10;95.60
13472;DHT22;6808;49.444;11.034;2022-07-22T06:51:54;24.20;95.40
13472;DHT22;6808;49.444;11.034;2022-07-22T06:54:19;24.20;95.60
13472;DHT22;6808;49.444;11.034;2022-07-22T06:56:45;24.30;95.40
13472;DHT22;6808;49.444;11.034;2022-07-22T06:59:11;24.30;94.90
13472;DHT22;6808;49.444;11.034;2022-07-22T07:01:36;24.30;94.80
13472;DHT22;6808;49.444;11.034;2022-07-22T07:04:02;24.40;94.30
13472;DHT22;6808;49.444;11.034;2022-07-22T07:06:27;24.90;94.00
13472;DHT22;6808;49.444;11.034;2022-07-22T07:08:53;24.70;93.80
13472;DHT22;6808;49.444;11.034;2022-07-22T07:11:18;24.50;94.20
13472;DHT22;6808;49.444;11.034;2022-07-22T07:13:44;24.50;94.20
13472;DHT22;6808;49.444;11.034;2022-07-22T07:16:10;24.70;93.80
13472;DHT22;6808;49.444;11.034;2022-07-22T07:18:45;24.90;93.10
13472;DHT22;6808;49.444;11.034;2022-07-22T07:21:10;25.10;93.00
13472;DHT22;6808;49.444;11.034;2022-07-22T07:23:36;25.20;93.20
13472;DHT22;6808;49.444;11.034;2022-07-22T07:26:01;25.40;93.10
13472;DHT22;6808;49.444;11.034;2022-07-22T07:28:27;25.40;93.50
13472;DHT22;6808;49.444;11.034;2022-07-22T07:30:54;25.40;92.90
13472;DHT22;6808;49.444;11.034;2022-07-22T07:33:19;25.60;92.40
13472;DHT22;6808;49.444;11.034;2022-07-22T07:35:45;25.90;92.40
13472;DHT22;6808;49.444;11.034;2022-07-22T07:38:10;25.80;91.90
13472;DHT22;6808;49.444;11.034;2022-07-22T07:40:36;25.90;92.70
13472;DHT22;6808;49.444;11.034;2022-07-22T07:43:02;26.10;91.90
13472;DHT22;6808;49.444;11.034;2022-07-22T07:45:28;26.00;92.20
13472;DHT22;6808;49.444;11.034;2022-07-22T07:47:53;25.70;92.20
13472;DHT22;6808;49.444;11.034;2022-07-22T07:50:19;25.60;92.10
13472;DHT22;6808;49.444;11.034;2022-07-22T07:52:45;25.70;92.10
13472;DHT22;6808;49.444;11.034;2022-07-22T07:55:14;26.00;92.10
13472;DHT22;6808;49.444;11.034;2022-07-22T07:57:40;25.90;91.50
13472;DHT22;6808;49.444;11.034;2022-07-22T08:00:08;25.70;91.90
13472;DHT22;6808;49.444;11.034;2022-07-22T08:02:34;25.70;92.80
13472;DHT22;6808;49.444;11.034;2022-07-22T08:05:00;26.00;91.80
13472;DHT22;6808;49.444;11.034;2022-07-22T08:07:27;25.90;91.40
13472;DHT22;6808;49.444;11.034;2022-07-22T08:09:52;26.20;91.60
13472;DHT22;6808;49.444;11.034;2022-07-22T08:12:18;26.20;92.00
13472;DHT22;6808;49.444;11.034;2022-07-22T08:14:44;26.00;92.80
13472;DHT22;6808;49.444;11.034;2022-07-22T08:17:09;26.00;92.00
13472;DHT22;6808;49.444;11.034;2022-07-22T08:19:35;26.20;91.60
13472;DHT22;6808;49.444;11.034;2022-07-22T08:22:00;26.20;93.20
13472;DHT22;6808;49.444;11.034;2022-07-22T08:24:26;26.00;92.30
13472;DHT22;6808;49.444;11.034;2022-07-22T08:26:52;26.10;92.40
13472;DHT22;6808;49.444;11.034;2022-07-22T08:29:17;26.20;91.30
13472;DHT22;6808;49.444;11.034;2022-07-22T08:31:44;26.20;92.30
13472;DHT22;6808;49.444;11.034;2022-07-22T08:34:10;26.10;91.30
13472;DHT22;6808;49.444;11.034;2022-07-22T08:36:35;25.90;91.50
13472;DHT22;6808;49.444;11.034;2022-07-22T08:39:02;25.90;92.60
13472;DHT22;6808;49.444;11.034;2022-07-22T08:41:32;26.00;91.40
13472;DHT22;6808;49.444;11.034;2022-07-22T08:43:58;26.00;92.10
13472;DHT22;6808;49.444;11.034;2022-07-22T08:46:26;26.10;90.90
13472;DHT22;6808;49.444;11.034;2022-07-22T08:48:52;25.90;90.80
13472;DHT22;6808;49.444;11.034;2022-07-22T08:51:20;26.00;90.60
13472;DHT22;6808;49.444;11.034;2022-07-22T08:53:46;25.80;90.90
13472;DHT22;6808;49.444;11.034;2022-07-22T08:56:13;25.80;93.80
13472;DHT22;6808;49.444;11.034;2022-07-22T08:58:40;25.80;94.40
13472;DHT22;6808;49.444;11.034;2022-07-22T09:01:09;25.90;93.10
13472;DHT22;6808;49.444;11.034;2022-07-22T09:06:12;26.00;90.10
13472;DHT22;6808;49.444;11.034;2022-07-22T09:08:57;26.00;90.40
13472;DHT22;6808;49.444;11.034;2022-07-22T09:11:26;26.00;90.40
13472;DHT22;6808;49.444;11.034;2022-07-22T09:13:54;25.90;91.30
13472;DHT22;6808;49.444;11.034;2022-07-22T09:16:41;25.90;90.30
13472;DHT22;6808;49.444;11.034;2022-07-22T09:19:07;25.90;89.80
13472;DHT22;6808;49.444;11.034;2022-07-22T09:21:39;25.90;90.60
13472;DHT22;6808;49.444;11.034;2022-07-22T09:24:06;26.10;90.50
13472;DHT22;6808;49.444;11.034;2022-07-22T09:26:35;26.10;91.50
13472;DHT22;6808;49.444;11.034;2022-07-22T09:29:01;26.20;94.50
13472;DHT22;6808;49.444;11.034;2022-07-22T09:31:32;26.20;89.80
13472;DHT22;6808;49.444;11.034;2022-07-22T09:33:58;26.10;89.30
13472;DHT22;6808;49.444;11.034;2022-07-22T09:36:24;26.20;89.80
13472;DHT22;6808;49.444;11.034;2022-07-22T09:38:49;26.10;92.60
13472;DHT22;6808;49.444;11.034;2022-07-22T09:41:15;26.20;88.10
13472;DHT22;6808;49.444;11.034;2022-07-22T09:43:41;26.20;88.70
13472;DHT22;6808;49.444;11.034;2022-07-22T09:46:07;26.30;86.60
13472;DHT22;6808;49.444;11.034;2022-07-22T09:48:33;26.40;88.70
13472;DHT22;6808;49.444;11.034;2022-07-22T09:50:59;26.50;91.60
13472;DHT22;6808;49.444;11.034;2022-07-22T09:53:27;26.60;88.20
13472;DHT22;6808;49.444;11.034;2022-07-22T09:56:00;26.70;89.20
13472;DHT22;6808;49.444;11.034;2022-07-22T09:58:26;26.90;95.80
13472;DHT22;6808;49.444;11.034;2022-07-22T10:00:53;26.90;84.80
13472;DHT22;6808;49.444;11.034;2022-07-22T10:03:28;26.90;88.20
13472;DHT22;6808;49.444;11.034;2022-07-22T10:05:54;27.00;90.10
13472;DHT22;6808;49.444;11.034;2022-07-22T10:08:21;27.20;90.30
13472;DHT22;6808;49.444;11.034;2022-07-22T10:10:48;27.40;91.30
13472;DHT22;6808;49.444;11.034;2022-07-22T10:13:13;27.40;92.00
13472;DHT22;6808;49.444;11.034;2022-07-22T10:15:39;27.50;90.10
13472;DHT22;6808;49.444;11.034;2022-07-22T10:18:07;27.60;92.20
13472;DHT22;6808;49.444;11.034;2022-07-22T10:20:34;27.70;85.40
13472;DHT22;6808;49.444;11.034;2022-07-22T10:23:05;27.80;92.00
13472;DHT22;6808;49.444;11.034;2022-07-22T10:25:47;27.90;82.40
13472;DHT22;6808;49.444;11.034;2022-07-22T10:28:28;27.80;84.20
13472;DHT22;6808;49.444;11.034;2022-07-22T10:31:17;27.80;89.40
13472;DHT22;6808;49.444;11.034;2022-07-22T10:33:44;28.00;92.00
13472;DHT22;6808;49.444;11.034;2022-07-22T10:36:10;28.00;76.20
13472;DHT22;6808;49.444;11.034;2022-07-22T10:38:35;27.90;74.00
13472;DHT22;6808;49.444;11.034;2022-07-22T10:41:06;27.80;83.70
13472;DHT22;6808;49.444;11.034;2022-07-22T10:46:08;28.20;87.30
13472;DHT22;6808;49.444;11.034;2022-07-22T10:51:12;28.20;79.00
13472;DHT22;6808;49.444;11.034;2022-07-22T10:56:30;28.50;84.50
13472;DHT22;6808;49.444;11.034;2022-07-22T11:01:28;28.70;70.30
13472;DHT22;6808;49.444;11.034;2022-07-22T11:03:55;28.70;86.40
13472;DHT22;6808;49.444;11.034;2022-07-22T11:06:29;28.80;80.80
13472;DHT22;6808;49.444;11.034;2022-07-22T11:08:58;28.90;80.90
13472;DHT22;6808;49.444;11.034;2022-07-22T11:11:38;29.00;78.30
13472;DHT22;6808;49.444;11.034;2022-07-22T11:14:33;29.20;83.90
13472;DHT22;6808;49.444;11.034;2022-07-22T11:17:04;29.30;90.20
13472;DHT22;6808;49.444;11.034;2022-07-22T11:19:31;29.50;77.30
13472;DHT22;6808;49.444;11.034;2022-07-22T11:22:05;29.60;78.00
13472;DHT22;6808;49.444;11.034;2022-07-22T11:24:32;29.70;80.70
13472;DHT22;6808;49.444;11.034;2022-07-22T11:26:59;29.80;64.90
13472;DHT22;6808;49.444;11.034;2022-07-22T11:29:34;29.80;63.50
13472;DHT22;6808;49.444;11.034;2022-07-22T11:32:03;29.80;66.20
13472;DHT22;6808;49.444;11.034;2022-07-22T11:34:29;29.80;64.00
13472;DHT22;6808;49.444;11.034;2022-07-22T11:36:56;29.60;64.30
13472;DHT22;6808;49.444;11.034;2022-07-22T11:39:23;29.70;86.00
13472;DHT22;6808;49.444;11.034;2022-07-22T11:41:50;29.80;65.40
13472;DHT22;6808;49.444;11.034;2022-07-22T11:44:27;30.80;75.30
13472;DHT22;6808;49.444;11.034;2022-07-22T11:46:53;29.90;62.60
13472;DHT22;6808;49.444;11.034;2022-07-22T11:49:23;29.90;61.30
13472;DHT22;6808;49.444;11.034;2022-07-22T11:51:50;30.00;60.60
13472;DHT22;6808;49.444;11.034;2022-07-22T11:54:16;29.80;70.70
13472;DHT22;6808;49.444;11.034;2022-07-22T11:56:42;30.00;59.20
13472;DHT22;6808;49.444;11.034;2022-07-22T11:59:12;30.00;58.90
13472;DHT22;6808;49.444;11.034;2022-07-22T12:01:38;30.00;59.00
13472;DHT22;6808;49.444;11.034;2022-07-22T12:04:11;30.00;68.00
13472;DHT22;6808;49.444;11.034;2022-07-22T12:06:40;30.20;58.20
13472;DHT22;6808;49.444;11.034;2022-07-22T12:09:08;30.30;64.00
13472;DHT22;6808;49.444;11.034;2022-07-22T12:11:41;30.40;57.50
13472;DHT22;6808;49.444;11.034;2022-07-22T12:14:09;30.20;56.50
13472;DHT22;6808;49.444;11.034;2022-07-22T12:16:36;30.20;58.40
13472;DHT22;6808;49.444;11.034;2022-07-22T12:19:08;30.30;56.70
13472;DHT22;6808;49.444;11.034;2022-07-22T12:21:53;30.20;60.00
13472;DHT22;6808;49.444;11.034;2022-07-22T12:27:02;30.80;55.90
13472;DHT22;6808;49.444;11.034;2022-07-22T12:29:40;30.50;55.40
13472;DHT22;6808;49.444;11.034;2022-07-22T12:32:16;30.70;64.00
13472;DHT22;6808;49.444;11.034;2022-07-22T12:39:54;31.00;58.20
13472;DHT22;6808;49.444;11.034;2022-07-22T12:42:19;31.40;69.40
13472;DHT22;6808;49.444;11.034;2022-07-22T12:47:54;31.60;53.40
13472;DHT22;6808;49.444;11.034;2022-07-22T12:50:28;31.50;51.60
13472;DHT22;6808;49.444;11.034;2022-07-22T12:53:02;31.40;50.90
13472;DHT22;6808;49.444;11.034;2022-07-22T12:55:29;31.50;57.40
13472;DHT22;6808;49.444;11.034;2022-07-22T12:57:56;31.50;55.40
13472;DHT22;6808;49.444;11.034;2022-07-22T13:00:24;31.20;60.10
13472;DHT22;6808;49.444;11.034;2022-07-22T13:02:50;32.10;53.50
13472;DHT22;6808;49.444;11.034;2022-07-22T13:05:16;32.20;54.90
13472;DHT22;6808;49.444;11.034;2022-07-22T13:07:43;32.20;56.90
13472;DHT22;6808;49.444;11.034;2022-07-22T13:10:09;32.30;53.70
13472;DHT22;6808;49.444;11.034;2022-07-22T13:12:35;32.40;52.20
13472;DHT22;6808;49.444;11.034;2022-07-22T13:15:00;32.30;56.70
13472;DHT22;6808;49.444;11.034;2022-07-22T13:17:26;32.20;55.30
13472;DHT22;6808;49.444;11.034;2022-07-22T13:19:51;32.40;52.10
13472;DHT22;6808;49.444;11.034;2022-07-22T13:22:17;32.30;51.70
13472;DHT22;6808;49.444;11.034;2022-07-22T13:24:43;32.30;54.80
13472;DHT22;6808;49.444;11.034;2022-07-22T13:27:08;32.50;57.20
13472;DHT22;6808;49.444;11.034;2022-07-22T13:29:34;32.50;56.60
13472;DHT22;6808;49.444;11.034;2022-07-22T13:31:59;32.70;51.10
13472;DHT22;6808;49.444;11.034;2022-07-22T13:34:25;32.70;49.00
13472;DHT22;6808;49.444;11.034;2022-07-22T13:36:50;32.30;48.00
13472;DHT22;6808;49.444;11.034;2022-07-22T13:39:16;31.70;48.60
13472;DHT22;6808;49.444;11.034;2022-07-22T13:41:41;31.40;49.00
13472;DHT22;6808;49.444;11.034;2022-07-22T13:44:07;31.10;49.10
13472;DHT22;6808;49.444;11.034;2022-07-22T13:46:36;31.00;49.40
13472;DHT22;6808;49.444;11.034;2022-07-22T13:49:02;31.30;52.00
13472;DHT22;6808;49.444;11.034;2022-07-22T13:51:27;31.50;50.50
13472;DHT22;6808;49.444;11.034;2022-07-22T13:53:53;31.20;58.70
13472;DHT22;6808;49.444;11.034;2022-07-22T13:56:19;31.60;52.90
13472;DHT22;6808;49.444;11.034;2022-07-22T13:58:44;31.70;49.60
13472;DHT22;6808;49.444;11.034;2022-07-22T14:01:10;31.90;65.80
13472;DHT22;6808;49.444;11.034;2022-07-22T14:03:37;32.20;50.40
13472;DHT22;6808;49.444;11.034;2022-07-22T14:06:03;32.10;58.00
13472;DHT22;6808;49.444;11.034;2022-07-22T14:08:29;32.30;56.10
13472;DHT22;6808;49.444;11.034;2022-07-22T14:10:55;31.80;58.20
13472;DHT22;6808;49.444;11.034;2022-07-22T14:13:21;32.50;49.70
13472;DHT22;6808;49.444;11.034;2022-07-22T14:15:46;32.40;54.40
13472;DHT22;6808;49.444;11.034;2022-07-22T14:18:12;32.40;49.30
13472;DHT22;6808;49.444;11.034;2022-07-22T14:20:38;32.30;50.30
13472;DHT22;6808;49.444;11.034;2022-07-22T14:23:05;32.40;48.20
13472;DHT22;6808;49.444;11.034;2022-07-22T14:25:31;32.40;49.10
13472;DHT22;6808;49.444;11.034;2022-07-22T14:27:57;32.50;52.60
13472;DHT22;6808;49.444;11.034;2022-07-22T14:30:23;32.70;47.90
13472;DHT22;6808;49.444;11.034;2022-07-22T14:32:49;32.60;49.10
13472;DHT22;6808;49.444;11.034;2022-07-22T14:35:15;32.80;55.90
13472;DHT22;6808;49.444;11.034;2022-07-22T14:37:41;32.90;56.40
13472;DHT22;6808;49.444;11.034;2022-07-22T14:40:07;32.90;48.90
13472;DHT22;6808;49.444;11.034;2022-07-22T14:42:33;32.90;53.10
13472;DHT22;6808;49.444;11.034;2022-07-22T14:44:58;33.00;52.70
13472;DHT22;6808;49.444;11.034;2022-07-22T14:47:24;33.30;50.50
13472;DHT22;6808;49.444;11.034;2022-07-22T14:49:49;32.60;51.10
13472;DHT22;6808;49.444;11.034;2022-07-22T14:52:15;32.60;49.20
13472;DHT22;6808;49.444;11.034;2022-07-22T14:54:41;32.80;51.10
13472;DHT22;6808;49.444;11.034;2022-07-22T14:57:06;33.00;55.20
13472;DHT22;6808;49.444;11.034;2022-07-22T14:59:33;33.00;52.10
13472;DHT22;6808;49.444;11.034;2022-07-22T15:01:59;33.20;52.60
13472;DHT22;6808;49.444;11.034;2022-07-22T15:04:25;33.30;54.30
13472;DHT22;6808;49.444;11.034;2022-07-22T15:06:50;33.20;47.30
13472;DHT22;6808;49.444;11.034;2022-07-22T15:09:16;33.10;45.70
13472;DHT22;6808;49.444;11.034;2022-07-22T15:11:41;33.10;47.30
13472;DHT22;6808;49.444;11.034;2022-07-22T15:14:07;32.90;52.70
13472;DHT22;6808;49.444;11.034;2022-07-22T15:16:32;33.00;52.80
13472;DHT22;6808;49.444;11.034;2022-07-22T15:18:59;34.20;51.20
13472;DHT22;6808;49.444;11.034;2022-07-22T15:21:25;33.20;48.50
13472;DHT22;6808;49.444;11.034;2022-07-22T15:23:50;33.30;48.80
13472;DHT22;6808;49.444;11.034;2022-07-22T15:26:16;33.40;53.00
13472;DHT22;6808;49.444;11.034;2022-07-22T15:28:41;33.30;48.20
13472;DHT22;6808;49.444;11.034;2022-07-22T15:31:08;33.30;47.00
13472;DHT22;6808;49.444;11.034;2022-07-22T15:33:35;33.10;46.10
13472;DHT22;6808;49.444;11.034;2022-07-22T15:36:00;33.20;45.90
13472;DHT22;6808;49.444;11.034;2022-07-22T15:38:26;33.10;45.80
13472;DHT22;6808;49.444;11.034;2022-07-22T15:40:51;33.00;46.80
13472;DHT22;6808;49.444;11.034;2022-07-22T15:43:17;33.20;46.00
13472;DHT22;6808;49.444;11.034;2022-07-22T15:45:43;33.10;45.70
13472;DHT22;6808;49.444;11.034;2022-07-22T15:48:08;33.00;45.20
13472;DHT22;6808;49.444;11.034;2022-07-22T15:50:34;33.20;48.30
13472;DHT22;6808;49.444;11.034;2022-07-22T15:53:00;33.50;46.70